עמוד ראשי
METAR-TAF:

METAR-TAF

שדות תעופה :

טאראווה, קיריבטי

קו רוחב: 01-21N, קו אורך: 172-55E, גובה: 2מטר

תצפית מזג אוויר נוכחית

הדו"ח נערך לפני 36דקות, בשעה 02:00 UTC
רוח 7קשר מכיוון מזרח
טמפרטורת 30 צלסיוס
לחות 79%
לחץ 1005 hPa
ראות 10 קילומטר או יותר
מעט עננים בגובה 1900רגל
עננים בינוניים בגובה 30000רגל

METAR: NGTA 200200Z 09007KT 9999 FEW019 BKN300 30/26 Q1005

זמן: 16:36 (02:36 UTC)

תחזית

הדו"ח נערך לפני 3 שעות ו 32דקות, בשעה 23:04 UTC
תחזית בתוקף מ 20 ב 00 UTC עד 20 ב 24 UTC
רוח 7קשר מכיוון מזרח
ראות 10 קילומטר או יותר
עננים פזורים בגובה 1800רגל
עננים בינוניים בגובה 4000רגל
הסתברות 40% :
זמנית מ -
20 ב 00 UTC עד 20 ב 18 UTC
ראות: 5000מטר
מעט עננים בגובה 1800רגל , קומולונימבוס.
סופת רעמים, גשם,

TAF: NGTA 192304Z 2000/2024 08007KT 9999 SCT018 BKN040 PROB40 TEMPO 2000/2018 5000 TSRA FEW018CB

תצפיות ותחזיות מזג אוויר לגבי יותר מ- 4,000 שדות תעופה ברחבי העולם. דוחות METAR ו- TAF.

התחנות הזמינות מסומנות בנקודות צהובות ואדומות על גבי המפה.

העבר את העכבר לנקודה הצבעונית על מנת לראות את שם התחנה.

לאחר מכן, לחץ כדי לראות את תוכן ואת תחזיות מזג האוויר.

כדי לשנות את המפה: לחץ על הכפתורים הירוקים עם הפלוס השחור כדי להתקרב; על הכפתור הירוק עם המקף כדי להתרחק; או בחיצים הירוקים למפות סמוכות.


METAR-TAF: